createdAt,value
2022-08-22T00:00:23.189Z,6.19
2022-08-22T00:02:42.424Z,5.89
2022-08-22T00:02:44.827Z,5.56
2022-08-22T00:02:45.056Z,5.57
2022-08-22T00:03:08.632Z,6.55
2022-08-22T00:03:10.964Z,6.95
2022-08-22T00:03:11.174Z,6.53
2022-08-22T00:03:11.563Z,6.66
2022-08-22T00:03:12.379Z,5.97
2022-08-22T00:03:15.350Z,5.96
2022-08-22T00:03:16.059Z,9.93
2022-08-22T00:03:49.293Z,5.56
2022-08-22T00:06:07.880Z,6.25
2022-08-22T00:07:12.358Z,5.91
2022-08-22T00:08:16.778Z,6.64
2022-08-22T00:09:21.342Z,5.71
2022-08-22T00:10:29.774Z,5.39
2022-08-22T00:11:34.860Z,5.68
2022-08-22T00:12:45.571Z,5.93
2022-08-22T00:14:01.311Z,6.11
2022-08-22T00:15:08.785Z,5.85
2022-08-22T00:16:15.794Z,6.62
2022-08-22T00:17:32.556Z,5.86
2022-08-22T00:18:39.761Z,5.92
2022-08-22T00:19:44.227Z,6.51
2022-08-22T00:21:05.578Z,5.57
2022-08-22T00:22:09.960Z,5.31
2022-08-22T00:23:20.282Z,5.71
2022-08-22T00:24:39.854Z,7.05
2022-08-22T00:25:50.520Z,5.77
2022-08-22T00:28:15.369Z,6.18
2022-08-22T00:33:14.820Z,5.31
2022-08-22T00:34:21.965Z,6.59
2022-08-22T00:35:44.979Z,5.56
2022-08-22T00:37:02.648Z,6.01
2022-08-22T00:38:07.129Z,6.44
2022-08-22T00:39:11.614Z,5.67
2022-08-22T00:40:25.986Z,5.84
2022-08-22T00:41:34.312Z,6.05
2022-08-22T00:42:41.850Z,6.30
2022-08-22T00:43:46.329Z,6.07
2022-08-22T00:46:03.029Z,6.39
2022-08-22T00:47:10.665Z,6.31
2022-08-22T00:48:15.035Z,6.25
2022-08-22T00:49:27.173Z,5.98
2022-08-22T00:50:46.837Z,6.04
2022-08-22T00:51:54.239Z,5.80
2022-08-22T00:52:58.614Z,5.62
2022-08-22T00:54:18.412Z,4.99
2022-08-22T00:55:22.831Z,5.80
2022-08-22T00:56:33.378Z,5.58
2022-08-22T00:57:37.735Z,5.28
2022-08-22T00:58:51.172Z,5.36
2022-08-22T01:00:05.204Z,5.08
2022-08-22T01:01:09.077Z,5.37
2022-08-22T01:02:25.815Z,5.66
2022-08-22T01:03:30.391Z,5.75
2022-08-22T01:04:44.715Z,6.06
2022-08-22T01:05:52.122Z,5.41
2022-08-22T01:06:59.922Z,5.95
2022-08-22T01:08:10.213Z,5.60
2022-08-22T01:09:33.024Z,5.88
2022-08-22T01:10:54.569Z,5.79
2022-08-22T01:12:01.762Z,4.96
2022-08-22T01:13:18.483Z,4.86
2022-08-22T01:15:45.533Z,5.42
2022-08-22T01:16:56.382Z,5.89
2022-08-22T01:18:06.536Z,5.31
2022-08-22T01:19:11.042Z,5.58
2022-08-22T01:20:28.133Z,5.38
2022-08-22T01:21:49.690Z,5.96
2022-08-22T01:24:41.561Z,5.80
2022-08-22T01:25:51.032Z,5.39
2022-08-22T01:27:01.572Z,5.48
2022-08-22T01:28:07.738Z,4.81
2022-08-22T01:29:29.602Z,6.11
2022-08-22T01:30:43.469Z,5.88
2022-08-22T01:31:50.874Z,5.59
2022-08-22T01:33:04.695Z,5.89
2022-08-22T01:34:12.750Z,5.52
2022-08-22T01:35:15.326Z,5.91
2022-08-22T01:36:24.095Z,5.91
2022-08-22T01:37:31.254Z,5.09
2022-08-22T01:38:52.300Z,5.46
2022-08-22T01:39:57.328Z,5.46
2022-08-22T01:41:19.214Z,6.07
2022-08-22T01:42:41.146Z,5.86
2022-08-22T01:44:04.081Z,6.66
2022-08-22T01:45:11.499Z,5.14
2022-08-22T01:47:48.042Z,5.62
2022-08-22T01:48:51.542Z,6.50
2022-08-22T01:51:12.182Z,5.41
2022-08-22T01:52:19.478Z,5.45
2022-08-22T01:53:31.953Z,5.48
2022-08-22T01:54:45.466Z,6.16
2022-08-22T01:56:05.260Z,5.62
2022-08-22T01:57:08.053Z,4.76
2022-08-22T01:58:15.202Z,5.13
2022-08-22T01:59:25.726Z,5.57
2022-08-22T02:00:34.789Z,5.68
2022-08-22T02:01:53.390Z,5.73
2022-08-22T02:03:00.961Z,6.02
2022-08-22T02:04:05.438Z,5.14
2022-08-22T02:05:09.917Z,5.89
2022-08-22T02:06:18.920Z,5.74
2022-08-22T02:07:32.092Z,5.99
2022-08-22T02:08:46.758Z,5.76
2022-08-22T02:10:09.547Z,5.46
2022-08-22T02:11:15.011Z,5.47
2022-08-22T02:13:43.962Z,5.72
2022-08-22T02:16:06.218Z,4.77
2022-08-22T02:20:20.281Z,5.19
2022-08-22T02:21:27.990Z,5.81
2022-08-22T02:23:56.169Z,4.96
2022-08-22T02:25:00.400Z,5.97
2022-08-22T02:26:04.956Z,5.51
2022-08-22T02:28:33.618Z,4.78
2022-08-22T02:29:38.011Z,5.38
2022-08-22T02:30:51.453Z,5.49
2022-08-22T02:32:02.065Z,5.90
2022-08-22T02:33:06.450Z,5.46
2022-08-22T02:34:26.193Z,5.56
2022-08-22T02:35:30.565Z,6.16
2022-08-22T02:38:04.134Z,5.36
2022-08-22T02:39:18.100Z,5.23
2022-08-22T02:40:40.890Z,6.57
2022-08-22T02:41:45.366Z,5.59
2022-08-22T02:42:49.947Z,5.51
2022-08-22T02:45:14.848Z,5.38
2022-08-22T02:46:34.202Z,5.41
2022-08-22T02:47:44.605Z,5.64
2022-08-22T02:48:52.118Z,5.75
2022-08-22T02:49:56.538Z,5.88
2022-08-22T02:51:04.713Z,5.44
2022-08-22T02:52:11.935Z,5.34
2022-08-22T02:53:19.136Z,6.02
2022-08-22T02:54:23.679Z,5.81
2022-08-22T02:55:37.421Z,5.48
2022-08-22T02:56:41.997Z,6.01
2022-08-22T02:57:46.018Z,5.56
2022-08-22T02:58:57.318Z,5.30
2022-08-22T03:00:06.873Z,5.20
2022-08-22T03:01:13.032Z,5.52
2022-08-22T03:03:38.293Z,5.26
2022-08-22T03:04:42.763Z,5.25
2022-08-22T03:05:47.234Z,5.29
2022-08-22T03:07:09.274Z,5.22
2022-08-22T03:08:22.877Z,4.80
2022-08-22T03:09:26.782Z,4.88
2022-08-22T03:10:31.450Z,5.40
2022-08-22T03:11:35.846Z,5.48
2022-08-22T03:12:40.227Z,5.88
2022-08-22T03:13:53.717Z,5.07
2022-08-22T03:15:04.114Z,5.89
2022-08-22T03:16:11.926Z,5.03
2022-08-22T03:17:16.410Z,4.39
2022-08-22T03:18:20.775Z,5.11
2022-08-22T03:19:25.125Z,5.02
2022-08-22T03:21:53.589Z,5.26
2022-08-22T03:22:58.071Z,4.46
2022-08-22T03:24:02.465Z,5.40
2022-08-22T03:25:15.796Z,5.12
2022-08-22T03:26:23.854Z,4.83
2022-08-22T03:30:20.985Z,4.93
2022-08-22T03:31:24.466Z,5.14
2022-08-22T03:32:45.677Z,5.54
2022-08-22T03:34:06.693Z,5.68
2022-08-22T03:35:09.594Z,4.84
2022-08-22T03:36:15.050Z,5.37
2022-08-22T03:37:19.054Z,4.83
2022-08-22T03:38:23.522Z,5.68
2022-08-22T03:41:03.762Z,4.89
2022-08-22T03:43:32.445Z,4.51
2022-08-22T03:44:53.782Z,5.24
2022-08-22T03:46:17.434Z,4.32
2022-08-22T03:47:30.337Z,4.49
2022-08-22T03:48:51.605Z,4.39
2022-08-22T03:51:14.369Z,5.20
2022-08-22T03:52:24.931Z,5.33
2022-08-22T03:53:32.077Z,5.02
2022-08-22T03:56:08.622Z,4.14
2022-08-22T03:57:18.974Z,4.83
2022-08-22T03:58:40.089Z,5.44
2022-08-22T04:00:02.737Z,4.33
2022-08-22T04:01:07.286Z,4.54
2022-08-22T04:02:42.263Z,4.84
2022-08-22T04:03:21.272Z,5.11
2022-08-22T04:04:25.783Z,4.73
2022-08-22T04:05:47.277Z,4.43
2022-08-22T04:07:15.835Z,4.55
2022-08-22T04:08:26.546Z,4.71
2022-08-22T04:09:48.205Z,4.06
2022-08-22T04:10:56.369Z,3.81
2022-08-22T04:12:03.615Z,4.56
2022-08-22T04:13:11.176Z,4.88
2022-08-22T04:14:27.507Z,5.14
2022-08-22T04:15:49.961Z,5.18
2022-08-22T04:17:13.072Z,4.17
2022-08-22T04:18:23.570Z,4.44
2022-08-22T04:19:27.977Z,4.86
2022-08-22T04:20:49.172Z,4.13
2022-08-22T04:22:12.446Z,3.86
2022-08-22T04:23:26.089Z,3.95
2022-08-22T04:24:48.388Z,3.66
2022-08-22T04:27:21.620Z,4.46
2022-08-22T04:28:25.616Z,3.77
2022-08-22T04:29:29.975Z,4.22
2022-08-22T04:30:35.045Z,4.33
2022-08-22T04:31:39.450Z,4.11
2022-08-22T04:33:01.778Z,3.53
2022-08-22T04:35:09.767Z,4.14
2022-08-22T04:36:16.624Z,3.97
2022-08-22T04:37:23.896Z,4.88
2022-08-22T04:38:27.525Z,4.57
2022-08-22T04:39:33.984Z,4.08
2022-08-22T04:41:54.931Z,4.79
2022-08-22T04:42:58.807Z,3.87
2022-08-22T04:44:02.878Z,4.49
2022-08-22T04:45:07.254Z,4.76
2022-08-22T04:46:36.734Z,4.14
2022-08-22T04:47:34.990Z,4.06
2022-08-22T04:48:39.413Z,4.76
2022-08-22T04:49:49.741Z,4.46
2022-08-22T04:52:29.585Z,3.81
2022-08-22T04:53:34.250Z,4.44
2022-08-22T04:54:38.625Z,4.41
2022-08-22T04:55:55.245Z,4.52
2022-08-22T04:57:02.734Z,3.69
2022-08-22T04:59:22.066Z,4.24
2022-08-22T05:00:41.526Z,4.14
2022-08-22T05:01:46.049Z,3.68
2022-08-22T05:02:51.064Z,4.04
2022-08-22T05:05:13.500Z,4.89
2022-08-22T05:06:15.374Z,3.89
2022-08-22T05:07:22.066Z,3.91
2022-08-22T05:08:25.349Z,4.22
2022-08-22T05:09:28.333Z,4.25
2022-08-22T05:13:56.549Z,4.26
2022-08-22T05:15:00.845Z,3.11
2022-08-22T05:16:05.550Z,4.02
2022-08-22T05:17:08.629Z,3.67
2022-08-22T05:21:58.644Z,4.10
2022-08-22T05:23:06.131Z,4.06
2022-08-22T05:24:11.386Z,3.55
2022-08-22T05:25:14.861Z,3.98
2022-08-22T05:26:17.978Z,3.95
2022-08-22T05:27:21.544Z,3.29
2022-08-22T05:28:34.169Z,4.21
2022-08-22T05:29:38.220Z,3.72
2022-08-22T05:30:40.861Z,3.47
2022-08-22T05:31:45.353Z,4.12
2022-08-22T05:32:55.942Z,3.81
2022-08-22T05:35:10.826Z,4.43
2022-08-22T05:37:31.153Z,3.62
2022-08-22T05:38:34.946Z,4.02
2022-08-22T05:39:37.934Z,3.31
2022-08-22T05:40:40.697Z,3.66
2022-08-22T05:41:43.465Z,3.85
2022-08-22T05:42:46.754Z,4.07
2022-08-22T05:43:49.351Z,3.51
2022-08-22T05:44:52.130Z,3.81
2022-08-22T05:45:55.321Z,3.41
2022-08-22T05:48:17.414Z,4.80
2022-08-22T05:49:20.819Z,3.41
2022-08-22T05:50:29.490Z,3.71
2022-08-22T05:53:05.960Z,4.12
2022-08-22T05:54:16.372Z,3.89
2022-08-22T05:55:23.538Z,4.26
2022-08-22T05:56:31.818Z,4.02
2022-08-22T05:57:35.539Z,4.22
2022-08-22T05:58:39.921Z,3.27
2022-08-22T05:59:42.608Z,4.02
2022-08-22T06:00:46.697Z,4.71
2022-08-22T06:01:51.189Z,4.05
2022-08-22T06:03:12.674Z,3.64
2022-08-22T06:04:32.221Z,3.35
2022-08-22T06:05:36.309Z,4.29
2022-08-22T06:06:41.352Z,4.40
2022-08-22T06:07:44.744Z,4.18
2022-08-22T06:08:55.089Z,3.55
2022-08-22T06:10:05.288Z,3.69
2022-08-22T06:11:15.851Z,3.88
2022-08-22T06:13:41.301Z,3.77
2022-08-22T06:14:45.131Z,3.88
2022-08-22T06:15:50.144Z,3.98
2022-08-22T06:21:56.334Z,3.54
2022-08-22T06:23:00.020Z,4.53
2022-08-22T06:24:04.041Z,4.24
2022-08-22T06:25:08.541Z,3.02
2022-08-22T06:26:21.259Z,3.74
2022-08-22T06:27:24.836Z,3.66
2022-08-22T06:28:29.425Z,3.43
2022-08-22T06:30:49.265Z,3.45
2022-08-22T06:31:51.870Z,3.58
2022-08-22T06:32:59.885Z,4.19
2022-08-22T06:34:05.628Z,4.37
2022-08-22T06:36:22.372Z,4.23
2022-08-22T06:37:31.487Z,4.61
2022-08-22T06:38:36.056Z,3.31
2022-08-22T06:39:41.672Z,3.61
2022-08-22T06:40:44.910Z,3.60
2022-08-22T06:41:49.733Z,4.29
2022-08-22T06:42:52.511Z,3.89
2022-08-22T06:43:55.262Z,3.54
2022-08-22T06:46:26.305Z,3.71
2022-08-22T06:47:32.763Z,4.01
2022-08-22T06:48:35.753Z,4.88
2022-08-22T06:49:38.744Z,4.93
2022-08-22T06:50:42.216Z,5.45
2022-08-22T06:51:44.969Z,5.03
2022-08-22T06:52:58.774Z,4.94
2022-08-22T06:54:02.867Z,5.43
2022-08-22T06:55:06.247Z,5.09
2022-08-22T06:56:09.582Z,4.76
2022-08-22T06:58:43.121Z,5.57
2022-08-22T06:59:45.722Z,4.92
2022-08-22T07:00:53.532Z,5.21
2022-08-22T07:01:56.673Z,5.34
2022-08-22T07:03:06.052Z,5.73
2022-08-22T07:04:08.779Z,5.21
2022-08-22T07:06:30.442Z,4.07
2022-08-22T07:07:33.500Z,4.56
2022-08-22T07:08:39.058Z,4.39
2022-08-22T07:09:40.355Z,4.48
2022-08-22T07:10:43.517Z,5.00
2022-08-22T07:11:46.151Z,4.47
2022-08-22T07:12:49.514Z,4.33
2022-08-22T07:14:01.862Z,3.51
2022-08-22T07:15:11.620Z,4.44
2022-08-22T07:16:14.920Z,3.96
2022-08-22T07:17:22.530Z,3.75
2022-08-22T07:18:27.988Z,3.96
2022-08-22T07:19:32.081Z,3.77
2022-08-22T07:20:38.712Z,3.69
2022-08-22T07:21:44.199Z,3.84
2022-08-22T07:22:54.019Z,4.09
2022-08-22T07:23:55.860Z,4.04
2022-08-22T07:25:06.156Z,4.97
2022-08-22T07:26:27.271Z,4.25
2022-08-22T07:27:31.863Z,4.31
2022-08-22T07:28:50.835Z,4.21
2022-08-22T07:29:49.092Z,4.31
2022-08-22T07:30:54.112Z,3.68
2022-08-22T07:32:18.196Z,3.53
2022-08-22T07:33:32.045Z,3.78
2022-08-22T07:34:42.676Z,3.55
2022-08-22T07:35:53.450Z,3.93
2022-08-22T07:36:59.118Z,3.34
2022-08-22T07:39:14.287Z,3.19
2022-08-22T07:40:31.698Z,3.17
2022-08-22T07:41:48.498Z,4.04
2022-08-22T07:42:53.148Z,3.46
2022-08-22T07:43:57.014Z,3.42
2022-08-22T07:45:04.719Z,3.16
2022-08-22T07:46:18.944Z,3.59
2022-08-22T07:47:26.198Z,2.78
2022-08-22T07:48:27.937Z,2.98
2022-08-22T07:49:31.982Z,3.38
2022-08-22T07:50:37.001Z,2.96
2022-08-22T07:51:43.296Z,2.78
2022-08-22T07:52:45.969Z,3.49
2022-08-22T07:55:17.787Z,3.84
2022-08-22T07:56:23.086Z,2.88
2022-08-22T07:57:30.256Z,3.30
2022-08-22T07:58:33.167Z,2.54
2022-08-22T07:59:37.243Z,3.46
2022-08-22T08:00:43.156Z,3.15
2022-08-22T08:01:50.489Z,3.60
2022-08-22T08:02:54.960Z,3.24
2022-08-22T08:05:09.361Z,3.21
2022-08-22T08:06:13.556Z,2.95
2022-08-22T08:07:16.552Z,2.76
2022-08-22T08:08:26.262Z,3.29
2022-08-22T08:09:32.939Z,3.28
2022-08-22T08:10:41.648Z,3.25
2022-08-22T08:11:45.166Z,3.04
2022-08-22T08:12:56.136Z,3.22
2022-08-22T08:15:10.694Z,3.39
2022-08-22T08:16:18.115Z,3.15
2022-08-22T08:18:33.355Z,3.29
2022-08-22T08:19:37.987Z,3.61
2022-08-22T08:20:40.953Z,3.58
2022-08-22T08:21:47.400Z,3.26
2022-08-22T08:22:50.193Z,3.39
2022-08-22T08:23:52.959Z,3.25
2022-08-22T08:24:56.746Z,2.79
2022-08-22T08:26:04.027Z,2.79
2022-08-22T08:27:08.446Z,3.12
2022-08-22T08:28:11.006Z,3.26
2022-08-22T08:29:15.073Z,3.97
2022-08-22T08:30:21.346Z,3.76
2022-08-22T08:31:31.075Z,3.49
2022-08-22T08:32:34.852Z,3.55
2022-08-22T08:33:38.909Z,3.27
2022-08-22T08:34:41.551Z,3.38
2022-08-22T08:36:59.134Z,3.29
2022-08-22T08:38:09.431Z,2.96
2022-08-22T08:39:35.324Z,3.56
2022-08-22T08:40:52.062Z,3.63
2022-08-22T08:41:59.334Z,3.36
2022-08-22T08:43:13.238Z,3.98
2022-08-22T08:44:26.880Z,4.02
2022-08-22T08:46:55.313Z,3.45
2022-08-22T08:48:13.975Z,3.68
2022-08-22T08:49:30.876Z,3.79
2022-08-22T08:50:46.437Z,3.18
2022-08-22T08:52:07.950Z,3.13
2022-08-22T08:53:18.480Z,3.50
2022-08-22T08:55:48.742Z,3.47
2022-08-22T08:56:59.267Z,6.24
2022-08-22T08:58:22.664Z,4.08
2022-08-22T08:59:27.101Z,8.69
2022-08-22T09:00:48.966Z,3.39
2022-08-22T09:04:18.450Z,5.99
2022-08-22T09:05:24.569Z,4.43
2022-08-22T09:06:38.756Z,6.73
2022-08-22T09:07:51.935Z,6.51
2022-08-22T09:09:08.870Z,5.01
2022-08-22T09:10:17.089Z,13.88
2022-08-22T09:11:42.130Z,7.65
2022-08-22T09:13:12.529Z,3.53
2022-08-22T09:14:18.087Z,7.69
2022-08-22T09:15:25.785Z,4.35
2022-08-22T09:16:45.048Z,5.41
2022-08-22T09:18:03.046Z,3.85
2022-08-22T09:19:25.671Z,4.88
2022-08-22T09:20:30.414Z,8.10
2022-08-22T09:21:48.328Z,7.99
2022-08-22T09:23:10.048Z,4.44
2022-08-22T09:24:32.247Z,3.84
2022-08-22T09:25:38.403Z,3.99
2022-08-22T09:26:51.438Z,3.16
2022-08-22T09:27:58.888Z,3.88
2022-08-22T09:29:03.636Z,3.11
2022-08-22T09:30:11.926Z,3.01
2022-08-22T09:32:48.596Z,3.50
2022-08-22T09:34:11.570Z,3.18
2022-08-22T09:35:22.586Z,3.78
2022-08-22T09:37:42.862Z,4.69
2022-08-22T09:38:51.456Z,4.03
2022-08-22T09:39:59.432Z,3.59
2022-08-22T09:41:10.850Z,3.10
2022-08-22T09:42:15.353Z,2.72
2022-08-22T09:43:21.018Z,3.85
2022-08-22T09:44:43.880Z,3.19
2022-08-22T09:46:05.423Z,3.98
2022-08-22T09:47:25.385Z,4.11
2022-08-22T09:50:00.157Z,3.69
2022-08-22T09:51:32.676Z,3.58
2022-08-22T09:53:46.234Z,4.03
2022-08-22T09:54:52.350Z,3.54
2022-08-22T09:55:56.788Z,3.81
2022-08-22T09:58:23.269Z,2.84
2022-08-22T09:59:30.827Z,4.11
2022-08-22T10:01:49.149Z,3.32
2022-08-22T10:02:54.195Z,3.05
2022-08-22T10:04:08.281Z,3.49
2022-08-22T10:05:39.487Z,3.59
2022-08-22T10:06:45.113Z,3.61
2022-08-22T10:08:06.313Z,4.21
2022-08-22T10:09:26.438Z,3.69
2022-08-22T10:10:46.409Z,3.58
2022-08-22T10:11:50.923Z,3.49
2022-08-22T10:14:12.661Z,3.79
2022-08-22T10:15:42.894Z,3.90
2022-08-22T10:17:02.987Z,4.45
2022-08-22T10:18:10.569Z,4.29
2022-08-22T10:19:30.265Z,4.46
2022-08-22T10:20:35.402Z,4.84
2022-08-22T10:21:57.215Z,4.63
2022-08-22T10:23:04.561Z,4.89
2022-08-22T10:24:25.695Z,5.23
2022-08-22T10:25:28.696Z,5.74
2022-08-22T10:26:38.402Z,4.58
2022-08-22T10:27:56.782Z,5.51
2022-08-22T10:29:18.356Z,4.87
2022-08-22T10:30:21.805Z,5.42
2022-08-22T10:31:26.495Z,5.49
2022-08-22T10:32:33.592Z,5.51
2022-08-22T10:33:44.415Z,5.25
2022-08-22T10:34:48.480Z,4.75
2022-08-22T10:35:52.994Z,4.82
2022-08-22T10:37:06.730Z,5.62
2022-08-22T10:38:25.246Z,5.68
2022-08-22T10:39:30.161Z,5.63
2022-08-22T10:40:36.631Z,5.62
2022-08-22T10:41:42.442Z,6.20
2022-08-22T10:44:22.419Z,8.55
2022-08-22T10:45:35.857Z,8.07
2022-08-22T10:46:35.460Z,6.71
2022-08-22T10:47:39.378Z,6.38
2022-08-22T10:48:45.798Z,6.05
2022-08-22T10:49:51.289Z,6.64
2022-08-22T10:52:15.889Z,4.98
2022-08-22T10:53:16.531Z,5.58
2022-08-22T10:54:21.038Z,6.37
2022-08-22T10:55:24.677Z,4.94
2022-08-22T10:56:32.421Z,6.61
2022-08-22T10:57:36.942Z,6.06
2022-08-22T10:58:41.462Z,6.04
2022-08-22T10:59:50.029Z,7.48
2022-08-22T11:00:54.648Z,6.64
2022-08-22T11:02:19.393Z,5.44
2022-08-22T11:03:32.983Z,7.18
2022-08-22T11:04:49.968Z,7.23
2022-08-22T11:05:54.105Z,7.22
2022-08-22T11:07:06.225Z,6.22
2022-08-22T11:08:29.513Z,6.81
2022-08-22T11:09:38.798Z,6.69
2022-08-22T11:10:46.969Z,5.72
2022-08-22T11:15:48.798Z,6.18
2022-08-22T11:17:23.545Z,6.06
2022-08-22T11:18:30.819Z,5.94
2022-08-22T11:22:08.485Z,6.56
2022-08-22T11:23:32.504Z,6.12
2022-08-22T11:24:55.247Z,6.90
2022-08-22T11:26:05.326Z,6.52
2022-08-22T11:27:13.114Z,6.33
2022-08-22T11:28:25.391Z,6.39
2022-08-22T11:29:31.637Z,6.89
2022-08-22T11:31:55.382Z,6.33
2022-08-22T11:33:17.313Z,6.54
2022-08-22T11:34:39.659Z,6.59
2022-08-22T11:35:43.911Z,7.53
2022-08-22T11:36:55.245Z,6.76
2022-08-22T11:38:11.108Z,6.08
2022-08-22T11:39:34.556Z,6.93
2022-08-22T11:40:39.751Z,7.37
2022-08-22T11:41:52.293Z,7.48
2022-08-22T11:42:53.029Z,6.67
2022-08-22T11:45:11.668Z,6.51
2022-08-22T11:46:26.997Z,7.67
2022-08-22T11:47:30.649Z,7.86
2022-08-22T11:48:48.670Z,7.34
2022-08-22T11:50:03.101Z,6.70
2022-08-22T11:52:20.631Z,6.96
2022-08-22T11:53:25.208Z,7.19
2022-08-22T11:56:00.774Z,7.79
2022-08-22T11:57:18.579Z,7.33
2022-08-22T11:58:28.686Z,7.22
2022-08-22T11:59:32.512Z,7.73
2022-08-22T12:00:53.082Z,7.52
2022-08-22T12:01:58.987Z,7.58
2022-08-22T12:03:11.703Z,7.11
2022-08-22T12:04:26.894Z,7.86
2022-08-22T12:06:49.915Z,8.35
2022-08-22T12:07:55.377Z,7.52
2022-08-22T12:09:15.057Z,8.28
2022-08-22T12:10:21.078Z,8.80
2022-08-22T12:11:26.744Z,7.73
2022-08-22T12:12:47.942Z,8.59
2022-08-22T12:14:03.885Z,8.22
2022-08-22T12:15:01.098Z,8.00
2022-08-22T12:16:14.648Z,7.86
2022-08-22T12:17:51.147Z,7.59
2022-08-22T12:18:31.710Z,8.04
2022-08-22T12:20:05.795Z,7.00
2022-08-22T12:21:06.948Z,7.12
2022-08-22T12:22:30.143Z,8.33
2022-08-22T12:23:48.742Z,8.58
2022-08-22T12:24:46.826Z,8.13
2022-08-22T12:26:00.795Z,8.34
2022-08-22T12:27:18.511Z,8.76
2022-08-22T12:28:29.661Z,9.13
2022-08-22T12:29:45.046Z,8.76
2022-08-22T12:30:47.236Z,8.97
2022-08-22T12:32:10.319Z,9.50
2022-08-22T12:33:31.688Z,9.53
2022-08-22T12:34:41.647Z,8.94
2022-08-22T12:35:52.652Z,9.10
2022-08-22T12:36:58.035Z,9.53
2022-08-22T12:38:02.587Z,9.37
2022-08-22T12:40:26.133Z,9.43
2022-08-22T12:41:37.745Z,9.42
2022-08-22T12:42:46.102Z,7.91
2022-08-22T12:43:50.813Z,9.46
2022-08-22T12:44:55.317Z,9.58
2022-08-22T12:46:16.390Z,8.62
2022-08-22T12:47:38.346Z,9.19
2022-08-22T12:48:44.510Z,8.57
2022-08-22T12:51:21.565Z,9.04
2022-08-22T12:52:25.942Z,9.23
2022-08-22T12:53:42.448Z,9.09
2022-08-22T12:54:46.952Z,9.20
2022-08-22T12:56:00.696Z,9.66
2022-08-22T12:57:25.077Z,8.30
2022-08-22T12:58:46.737Z,8.37
2022-08-22T12:59:54.834Z,9.30
2022-08-22T13:01:00.408Z,8.41
2022-08-22T13:03:22.981Z,9.84
2022-08-22T13:04:33.347Z,9.09
2022-08-22T13:05:40.388Z,8.62
2022-08-22T13:06:39.074Z,8.85
2022-08-22T13:07:42.023Z,8.56
2022-08-22T13:08:44.564Z,9.89
2022-08-22T13:09:48.465Z,9.35
2022-08-22T13:10:52.152Z,9.23
2022-08-22T13:13:12.037Z,9.03
2022-08-22T13:14:13.815Z,10.61
2022-08-22T13:16:40.634Z,9.14
2022-08-22T13:17:45.049Z,9.41
2022-08-22T13:18:54.003Z,8.50
2022-08-22T13:19:57.555Z,8.98
2022-08-22T13:21:03.083Z,8.67
2022-08-22T13:22:09.336Z,9.70
2022-08-22T13:23:13.725Z,8.24
2022-08-22T13:24:22.808Z,9.44
2022-08-22T13:25:27.588Z,9.31
2022-08-22T13:26:37.677Z,8.29
2022-08-22T13:27:50.691Z,9.21
2022-08-22T13:28:47.758Z,9.36
2022-08-22T13:30:00.421Z,9.91
2022-08-22T13:31:03.514Z,9.70
2022-08-22T13:32:07.917Z,7.83
2022-08-22T13:33:12.083Z,9.86
2022-08-22T13:35:33.597Z,9.31
2022-08-22T13:36:41.259Z,9.34
2022-08-22T13:37:45.981Z,9.57
2022-08-22T13:39:04.675Z,8.59
2022-08-22T13:40:10.591Z,9.39
2022-08-22T13:41:15.431Z,9.29
2022-08-22T13:42:30.503Z,8.39
2022-08-22T13:43:30.422Z,8.08
2022-08-22T13:45:52.377Z,8.18
2022-08-22T13:47:13.651Z,8.92
2022-08-22T13:48:04.056Z,9.49
2022-08-22T13:49:09.458Z,8.44
2022-08-22T13:50:13.888Z,8.98
2022-08-22T13:51:21.806Z,7.86
2022-08-22T13:52:30.401Z,8.27
2022-08-22T13:53:34.947Z,6.81
2022-08-22T13:54:48.331Z,8.13
2022-08-22T13:55:52.556Z,8.54
2022-08-22T13:56:57.428Z,7.49
2022-08-22T13:58:11.050Z,7.77
2022-08-22T13:59:40.086Z,7.84
2022-08-22T14:01:49.704Z,7.03
2022-08-22T14:03:08.300Z,8.33
2022-08-22T14:04:19.969Z,7.46
2022-08-22T14:05:33.605Z,7.18
2022-08-22T14:06:41.380Z,7.61
2022-08-22T14:07:44.530Z,7.45
2022-08-22T14:08:48.432Z,7.35
2022-08-22T14:09:54.423Z,7.07
2022-08-22T14:11:01.400Z,6.82
2022-08-22T14:12:08.131Z,6.12
2022-08-22T14:13:14.269Z,7.31
2022-08-22T14:14:24.782Z,7.25
2022-08-22T14:15:32.278Z,6.84
2022-08-22T14:16:37.455Z,7.24
2022-08-22T14:17:42.846Z,6.09
2022-08-22T14:18:51.828Z,7.26
2022-08-22T14:19:59.415Z,6.89
2022-08-22T14:21:16.764Z,7.11
2022-08-22T14:22:20.870Z,6.21
2022-08-22T14:23:27.288Z,6.42
2022-08-22T14:24:34.872Z,6.42
2022-08-22T14:25:39.770Z,7.21
2022-08-22T14:29:07.777Z,6.51
2022-08-22T14:30:13.814Z,6.28
2022-08-22T14:31:16.385Z,6.51
2022-08-22T14:32:28.550Z,7.29
2022-08-22T14:33:46.101Z,7.67
2022-08-22T14:34:51.710Z,6.91
2022-08-22T14:37:11.514Z,6.72
2022-08-22T14:38:34.106Z,6.97
2022-08-22T14:40:53.576Z,7.19
2022-08-22T14:45:46.307Z,6.93
2022-08-22T14:46:53.309Z,6.81
2022-08-22T14:48:30.196Z,7.15
2022-08-22T14:49:09.982Z,7.27
2022-08-22T14:51:31.761Z,5.68
2022-08-22T14:52:42.090Z,6.28
2022-08-22T14:53:44.577Z,7.22
2022-08-22T14:54:47.022Z,6.97
2022-08-22T14:56:09.733Z,6.68
2022-08-22T14:57:19.982Z,6.99
2022-08-22T14:58:17.921Z,7.50
2022-08-22T14:59:26.964Z,5.65
2022-08-22T15:00:32.009Z,7.31
2022-08-22T15:01:35.246Z,7.49
2022-08-22T15:02:39.730Z,6.88
2022-08-22T15:03:42.571Z,6.60
2022-08-22T15:04:46.755Z,5.51
2022-08-22T15:05:53.703Z,6.85
2022-08-22T15:06:57.935Z,6.04
2022-08-22T15:08:01.489Z,6.16
2022-08-22T15:09:07.787Z,6.31
2022-08-22T15:10:27.536Z,5.80
2022-08-22T15:11:32.211Z,6.70
2022-08-22T15:12:35.932Z,5.95
2022-08-22T15:13:41.612Z,6.71
2022-08-22T15:14:45.006Z,6.50
2022-08-22T15:15:54.332Z,7.36
2022-08-22T15:16:55.115Z,7.09
2022-08-22T15:17:57.764Z,7.20
2022-08-22T15:19:00.942Z,7.48
2022-08-22T15:20:08.461Z,6.65
2022-08-22T15:21:24.141Z,6.99
2022-08-22T15:22:27.635Z,6.45
2022-08-22T15:23:30.550Z,5.82
2022-08-22T15:24:33.118Z,6.29
2022-08-22T15:25:36.579Z,7.35
2022-08-22T15:26:43.061Z,5.52
2022-08-22T15:29:05.565Z,6.30
2022-08-22T15:30:20.345Z,6.19
2022-08-22T15:31:15.417Z,7.17
2022-08-22T15:32:22.194Z,5.81
2022-08-22T15:33:26.571Z,6.43
2022-08-22T15:34:32.836Z,6.92
2022-08-22T15:35:38.877Z,6.62
2022-08-22T15:37:00.521Z,6.09
2022-08-22T15:38:06.033Z,8.19
2022-08-22T15:39:27.954Z,5.85
2022-08-22T15:40:35.800Z,5.90
2022-08-22T15:41:40.887Z,5.39
2022-08-22T15:42:46.312Z,6.69
2022-08-22T15:45:03.114Z,6.25
2022-08-22T15:46:18.638Z,5.79
2022-08-22T15:47:27.772Z,6.27
2022-08-22T15:48:33.453Z,5.77
2022-08-22T15:50:55.782Z,6.00
2022-08-22T15:52:00.362Z,5.40
2022-08-22T15:53:13.707Z,6.42
2022-08-22T15:54:25.500Z,6.61
2022-08-22T15:55:28.585Z,6.99
2022-08-22T15:56:32.943Z,6.69
2022-08-22T15:57:36.437Z,6.53
2022-08-22T15:58:39.697Z,6.54
2022-08-22T15:59:53.954Z,6.59
2022-08-22T16:01:18.924Z,7.14
2022-08-22T16:02:35.386Z,6.69
2022-08-22T16:03:39.203Z,6.47
2022-08-22T16:04:43.729Z,6.38
2022-08-22T16:05:54.986Z,7.00
2022-08-22T16:06:56.447Z,6.62
2022-08-22T16:08:00.735Z,6.95
2022-08-22T16:09:03.224Z,6.06
2022-08-22T16:10:13.091Z,6.39
2022-08-22T16:11:20.366Z,7.52
2022-08-22T16:13:39.851Z,7.10
2022-08-22T16:14:44.310Z,6.90
2022-08-22T16:15:52.676Z,7.76
2022-08-22T16:16:56.604Z,7.17
2022-08-22T16:17:59.222Z,8.36
2022-08-22T16:19:03.666Z,7.04
2022-08-22T16:20:19.693Z,6.92
2022-08-22T16:21:23.660Z,7.36
2022-08-22T16:22:28.061Z,6.11
2022-08-22T16:23:51.107Z,6.94
2022-08-22T16:26:09.469Z,8.39
2022-08-22T16:27:21.546Z,7.24
2022-08-22T16:28:54.289Z,6.76
2022-08-22T16:29:31.902Z,8.66
2022-08-22T16:30:36.987Z,7.87
2022-08-22T16:31:41.434Z,8.45
2022-08-22T16:32:50.329Z,6.76
2022-08-22T16:33:53.418Z,7.43
2022-08-22T16:34:56.004Z,7.49
2022-08-22T16:36:19.170Z,7.63
2022-08-22T16:37:26.601Z,7.46
2022-08-22T16:38:34.802Z,7.26
2022-08-22T16:39:39.419Z,7.29
2022-08-22T16:42:16.250Z,7.78
2022-08-22T16:43:18.848Z,7.12
2022-08-22T16:44:29.413Z,8.16
2022-08-22T16:45:36.207Z,6.70
2022-08-22T16:46:40.890Z,7.97
2022-08-22T16:47:58.006Z,7.39
2022-08-22T16:48:56.965Z,7.92
2022-08-22T16:50:19.513Z,7.19
2022-08-22T16:51:22.374Z,8.08
2022-08-22T16:52:27.144Z,7.57
2022-08-22T16:53:31.503Z,7.62
2022-08-22T16:54:40.962Z,7.72
2022-08-22T16:55:44.695Z,8.10
2022-08-22T16:58:15.045Z,7.91
2022-08-22T16:59:23.880Z,7.91
2022-08-22T17:00:25.869Z,7.85
2022-08-22T17:01:45.946Z,8.29
2022-08-22T17:04:25.365Z,7.56
2022-08-22T17:05:30.279Z,7.80
2022-08-22T17:06:37.936Z,8.36
2022-08-22T17:07:48.858Z,8.21
2022-08-22T17:09:05.314Z,7.88
2022-08-22T17:10:19.625Z,7.36
2022-08-22T17:11:33.064Z,7.39
2022-08-22T17:12:54.246Z,7.62
2022-08-22T17:14:01.528Z,7.91
2022-08-22T17:15:08.762Z,8.31
2022-08-22T17:16:13.644Z,8.62
2022-08-22T17:17:24.462Z,8.88
2022-08-22T17:19:53.152Z,7.51
2022-08-22T17:20:58.424Z,7.24
2022-08-22T17:22:02.920Z,9.48
2022-08-22T17:23:14.494Z,7.84
2022-08-22T17:24:36.216Z,7.16
2022-08-22T17:25:46.997Z,8.55
2022-08-22T17:26:55.300Z,6.98